createdAt,value
2024-03-12T00:01:44.847Z,3.20
2024-03-12T00:04:12.477Z,3.70
2024-03-12T00:06:39.627Z,3.50
2024-03-12T00:09:11.015Z,3.53
2024-03-12T00:11:38.411Z,3.72
2024-03-12T00:14:05.326Z,3.42
2024-03-12T00:16:35.109Z,4.07
2024-03-12T00:19:03.398Z,4.60
2024-03-12T00:21:30.713Z,5.70
2024-03-12T00:24:00.658Z,6.47
2024-03-12T00:26:29.519Z,8.02
2024-03-12T00:28:56.567Z,8.77
2024-03-12T00:31:23.626Z,8.98
2024-03-12T00:33:50.642Z,9.73
2024-03-12T00:36:18.167Z,10.90
2024-03-12T00:38:45.071Z,10.98
2024-03-12T00:41:11.985Z,11.40
2024-03-12T00:43:38.976Z,10.52
2024-03-12T00:46:06.198Z,11.15
2024-03-12T00:48:33.321Z,12.00
2024-03-12T00:51:00.260Z,11.52
2024-03-12T00:53:27.109Z,12.52
2024-03-12T00:55:54.448Z,12.13
2024-03-12T00:58:22.268Z,12.75
2024-03-12T01:00:50.600Z,11.57
2024-03-12T01:03:18.585Z,12.15
2024-03-12T01:05:45.586Z,12.05
2024-03-12T01:08:14.289Z,11.40
2024-03-12T01:10:41.205Z,10.52
2024-03-12T01:13:12.737Z,10.88
2024-03-12T01:15:41.396Z,10.18
2024-03-12T01:18:10.361Z,9.75
2024-03-12T01:20:37.782Z,10.13
2024-03-12T01:23:07.037Z,10.27
2024-03-12T01:25:38.462Z,9.25
2024-03-12T01:28:07.540Z,9.23
2024-03-12T01:30:35.948Z,9.75
2024-03-12T01:33:03.909Z,9.10
2024-03-12T01:35:32.062Z,8.68
2024-03-12T01:37:59.492Z,8.65
2024-03-12T01:40:31.751Z,8.68
2024-03-12T01:43:04.599Z,8.87
2024-03-12T01:45:34.381Z,8.30
2024-03-12T01:48:10.304Z,8.07
2024-03-12T01:50:40.464Z,7.68
2024-03-12T01:53:08.439Z,7.55
2024-03-12T01:55:44.488Z,6.88
2024-03-12T01:58:16.593Z,7.18
2024-03-12T02:00:45.503Z,6.28
2024-03-12T02:03:12.601Z,6.60
2024-03-12T02:05:42.506Z,6.00
2024-03-12T02:08:09.871Z,6.18
2024-03-12T02:10:36.767Z,5.63
2024-03-12T02:13:03.847Z,5.20
2024-03-12T02:15:31.297Z,6.00
2024-03-12T02:17:58.380Z,5.88
2024-03-12T02:20:28.091Z,5.78
2024-03-12T02:22:57.105Z,5.00
2024-03-12T02:25:24.864Z,5.13
2024-03-12T02:27:52.689Z,5.45
2024-03-12T02:30:20.356Z,5.15
2024-03-12T02:32:48.336Z,5.72
2024-03-12T02:35:17.009Z,5.10
2024-03-12T02:37:44.414Z,5.10
2024-03-12T02:40:15.621Z,5.07
2024-03-12T02:42:45.649Z,5.40
2024-03-12T02:45:17.989Z,5.18
2024-03-12T02:47:47.614Z,5.07
2024-03-12T02:50:17.176Z,5.38
2024-03-12T02:52:46.272Z,4.72
2024-03-12T02:55:13.730Z,5.13
2024-03-12T02:57:40.715Z,5.13
2024-03-12T03:00:19.515Z,5.20
2024-03-12T03:02:47.121Z,5.25
2024-03-12T03:05:14.551Z,5.50
2024-03-12T03:07:43.090Z,4.57
2024-03-12T03:10:12.315Z,5.03
2024-03-12T03:12:40.663Z,5.22
2024-03-12T03:15:08.949Z,4.97
2024-03-12T03:17:38.861Z,5.32
2024-03-12T03:20:07.710Z,4.72
2024-03-12T03:22:36.469Z,5.18
2024-03-12T03:25:03.616Z,4.65
2024-03-12T03:27:32.055Z,5.22
2024-03-12T03:30:00.808Z,4.45
2024-03-12T03:32:27.720Z,5.40
2024-03-12T03:34:54.892Z,5.00
2024-03-12T03:37:22.063Z,5.82
2024-03-12T03:39:49.157Z,5.97
2024-03-12T03:42:16.502Z,5.68
2024-03-12T03:44:43.760Z,5.88
2024-03-12T03:47:10.676Z,6.47
2024-03-12T03:49:37.491Z,6.03
2024-03-12T03:52:04.547Z,5.93
2024-03-12T03:54:31.544Z,6.53
2024-03-12T03:56:58.395Z,6.90
2024-03-12T03:59:26.245Z,6.30
2024-03-12T04:01:53.545Z,6.70
2024-03-12T04:04:20.662Z,6.60
2024-03-12T04:06:50.292Z,6.95
2024-03-12T04:09:18.714Z,7.30
2024-03-12T04:11:45.654Z,6.50
2024-03-12T04:14:12.475Z,7.03
2024-03-12T04:16:39.265Z,7.40
2024-03-12T04:19:06.283Z,7.05
2024-03-12T04:21:33.368Z,7.32
2024-03-12T04:24:00.268Z,7.35
2024-03-12T04:26:30.285Z,7.38
2024-03-12T04:28:57.324Z,7.47
2024-03-12T04:31:24.505Z,8.55
2024-03-12T04:33:53.894Z,7.63
2024-03-12T04:36:24.297Z,7.88
2024-03-12T04:38:51.767Z,8.23
2024-03-12T04:41:22.164Z,8.00
2024-03-12T04:43:49.822Z,8.70
2024-03-12T04:46:16.815Z,8.68
2024-03-12T04:48:44.374Z,8.57
2024-03-12T04:51:12.247Z,8.77
2024-03-12T04:53:39.114Z,8.07
2024-03-12T04:56:06.003Z,9.45
2024-03-12T04:58:32.791Z,9.40
2024-03-12T05:01:00.135Z,8.88
2024-03-12T05:03:32.416Z,8.55
2024-03-12T05:05:59.223Z,8.90
2024-03-12T05:08:26.172Z,8.48
2024-03-12T05:10:53.079Z,9.60
2024-03-12T05:13:22.843Z,9.07
2024-03-12T05:15:49.720Z,9.85
2024-03-12T05:18:16.615Z,8.45
2024-03-12T05:20:43.440Z,8.93
2024-03-12T05:23:11.619Z,8.82
2024-03-12T05:25:42.531Z,9.40
2024-03-12T05:28:11.072Z,7.43
2024-03-12T05:30:39.254Z,8.25
2024-03-12T05:33:11.060Z,8.35
2024-03-12T05:35:40.373Z,8.05
2024-03-12T05:38:23.643Z,7.40
2024-03-12T05:41:16.323Z,8.30
2024-03-12T05:44:01.684Z,7.63
2024-03-12T05:46:48.639Z,6.80
2024-03-12T05:49:16.083Z,6.80
2024-03-12T05:51:43.520Z,6.78
2024-03-12T05:54:11.143Z,6.47
2024-03-12T05:56:38.969Z,7.00
2024-03-12T05:59:06.096Z,6.95
2024-03-12T06:01:33.787Z,6.57
2024-03-12T06:04:00.957Z,6.68
2024-03-12T06:06:27.991Z,6.40
2024-03-12T06:08:55.089Z,6.90
2024-03-12T06:11:22.194Z,7.90
2024-03-12T06:13:49.153Z,7.88
2024-03-12T06:16:19.720Z,7.75
2024-03-12T06:18:46.778Z,8.40
2024-03-12T06:21:13.525Z,8.95
2024-03-12T06:23:41.066Z,8.15
2024-03-12T06:26:08.252Z,9.07
2024-03-12T06:28:35.795Z,9.77
2024-03-12T06:31:05.689Z,9.35
2024-03-12T06:33:33.659Z,8.57
2024-03-12T06:36:00.638Z,7.32
2024-03-12T06:38:27.435Z,7.55
2024-03-12T06:40:54.912Z,7.40
2024-03-12T06:43:22.630Z,7.47
2024-03-12T06:45:50.528Z,7.32
2024-03-12T06:48:19.681Z,5.75
2024-03-12T06:50:47.064Z,5.85
2024-03-12T06:53:17.081Z,5.93
2024-03-12T06:55:47.153Z,6.25
2024-03-12T06:58:20.595Z,5.80
2024-03-12T07:00:49.520Z,6.15
2024-03-12T07:03:18.403Z,5.70
2024-03-12T07:05:48.409Z,5.28
2024-03-12T07:08:18.401Z,5.75
2024-03-12T07:10:46.780Z,5.20
2024-03-12T07:13:14.238Z,5.22
2024-03-12T07:15:43.760Z,5.35
2024-03-12T07:18:11.073Z,5.78
2024-03-12T07:20:38.218Z,5.68
2024-03-12T07:23:07.044Z,5.80
2024-03-12T07:25:34.654Z,4.88
2024-03-12T07:28:07.862Z,4.88
2024-03-12T07:30:36.357Z,5.05
2024-03-12T07:33:04.863Z,5.10
2024-03-12T07:35:36.279Z,4.93
2024-03-12T07:38:05.360Z,4.60
2024-03-12T07:40:33.581Z,5.28
2024-03-12T07:43:01.110Z,5.47
2024-03-12T07:45:28.846Z,6.32
2024-03-12T07:47:57.504Z,5.88
2024-03-12T07:50:29.651Z,5.32
2024-03-12T07:52:57.081Z,5.47
2024-03-12T07:55:24.362Z,5.78
2024-03-12T07:57:51.768Z,5.32
2024-03-12T08:00:20.651Z,6.05
2024-03-12T08:02:47.673Z,6.40
2024-03-12T08:05:14.655Z,5.90
2024-03-12T08:07:41.561Z,6.68
2024-03-12T08:10:11.087Z,5.47
2024-03-12T08:12:40.931Z,5.30
2024-03-12T08:15:10.368Z,6.00
2024-03-12T08:17:39.366Z,5.65
2024-03-12T08:20:07.616Z,6.18
2024-03-12T08:22:34.744Z,6.57
2024-03-12T08:25:02.315Z,6.97
2024-03-12T08:27:30.676Z,5.15
2024-03-12T08:29:58.693Z,5.95
2024-03-12T08:32:26.559Z,19.05
2024-03-12T08:34:53.818Z,5.93
2024-03-12T08:37:23.746Z,5.40
2024-03-12T08:39:54.323Z,6.50
2024-03-12T08:42:21.875Z,6.03
2024-03-12T08:44:49.133Z,6.82
2024-03-12T08:47:16.335Z,6.75
2024-03-12T08:49:44.077Z,6.22
2024-03-12T08:52:11.018Z,5.57
2024-03-12T08:54:38.722Z,5.80
2024-03-12T08:57:06.021Z,6.10
2024-03-12T08:59:33.018Z,6.32
2024-03-12T09:02:01.383Z,5.63
2024-03-12T09:04:31.751Z,5.38
2024-03-12T09:06:59.019Z,4.47
2024-03-12T09:09:27.930Z,5.03
2024-03-12T09:11:57.170Z,5.72
2024-03-12T09:14:24.715Z,4.95
2024-03-12T09:16:52.146Z,5.47
2024-03-12T09:19:19.067Z,5.85
2024-03-12T09:21:46.331Z,5.43
2024-03-12T09:24:13.181Z,5.82
2024-03-12T09:26:40.137Z,5.57
2024-03-12T09:29:07.512Z,5.20
2024-03-12T09:31:36.100Z,5.75
2024-03-12T09:34:05.528Z,5.95
2024-03-12T09:36:35.239Z,5.70
2024-03-12T09:39:02.476Z,5.07
2024-03-12T09:41:30.263Z,4.78
2024-03-12T09:43:57.458Z,4.90
2024-03-12T09:46:25.122Z,5.18
2024-03-12T09:48:53.314Z,4.80
2024-03-12T09:51:22.537Z,4.72
2024-03-12T09:53:52.337Z,5.18
2024-03-12T09:56:20.185Z,4.78
2024-03-12T09:58:49.171Z,5.88
2024-03-12T10:01:16.501Z,4.65
2024-03-12T10:03:43.926Z,5.07
2024-03-12T10:06:11.167Z,5.25
2024-03-12T10:08:38.326Z,5.07
2024-03-12T10:11:10.201Z,5.53
2024-03-12T10:13:41.682Z,5.63
2024-03-12T10:16:09.830Z,4.75
2024-03-12T10:18:38.929Z,5.22
2024-03-12T10:21:08.320Z,5.38
2024-03-12T10:23:38.921Z,5.40
2024-03-12T10:26:10.815Z,5.63
2024-03-12T10:28:39.147Z,5.93
2024-03-12T10:31:11.718Z,5.70
2024-03-12T10:33:43.458Z,5.78
2024-03-12T10:36:12.472Z,5.68
2024-03-12T10:38:41.697Z,5.88
2024-03-12T10:41:22.565Z,5.75
2024-03-12T10:43:52.003Z,5.20
2024-03-12T10:46:20.769Z,5.40
2024-03-12T10:48:49.863Z,6.25
2024-03-12T10:51:18.936Z,4.70
2024-03-12T10:53:54.005Z,4.63
2024-03-12T10:56:23.063Z,4.53
2024-03-12T10:58:50.555Z,4.70
2024-03-12T11:01:19.898Z,4.03
2024-03-12T11:03:48.369Z,5.00
2024-03-12T11:06:20.257Z,4.60
2024-03-12T11:08:47.507Z,4.30
2024-03-12T11:11:15.842Z,5.78
2024-03-12T11:13:43.035Z,5.25
2024-03-12T11:16:20.517Z,5.30
2024-03-12T11:18:50.849Z,5.13
2024-03-12T11:21:31.220Z,6.07
2024-03-12T11:23:59.314Z,5.68
2024-03-12T11:26:36.944Z,5.35
2024-03-12T11:29:04.154Z,5.25
2024-03-12T11:31:41.370Z,5.13
2024-03-12T11:34:08.270Z,5.85
2024-03-12T11:36:41.430Z,5.90
2024-03-12T11:39:16.718Z,5.03
2024-03-12T11:41:58.930Z,6.35
2024-03-12T11:44:54.886Z,5.70
2024-03-12T11:47:38.362Z,5.80
2024-03-12T11:50:26.165Z,5.45
2024-03-12T11:52:53.068Z,5.20
2024-03-12T11:55:52.557Z,5.97
2024-03-12T11:58:21.590Z,5.57
2024-03-12T12:00:52.274Z,5.53
2024-03-12T12:03:20.259Z,5.70
2024-03-12T12:05:47.345Z,5.13
2024-03-12T12:08:16.270Z,4.90
2024-03-12T12:10:43.478Z,4.45
2024-03-12T12:13:15.682Z,4.50
2024-03-12T12:15:55.794Z,4.20
2024-03-12T12:18:23.051Z,4.13
2024-03-12T12:20:49.890Z,4.00
2024-03-12T12:23:16.656Z,4.32
2024-03-12T12:25:49.033Z,4.28
2024-03-12T12:28:17.729Z,4.60
2024-03-12T12:30:47.537Z,4.00
2024-03-12T12:33:15.232Z,4.63
2024-03-12T12:35:48.596Z,3.85
2024-03-12T12:38:18.269Z,4.00
2024-03-12T12:40:46.549Z,4.15
2024-03-12T12:43:21.037Z,4.10
2024-03-12T12:45:48.594Z,3.72
2024-03-12T12:48:17.083Z,3.42
2024-03-12T12:50:44.596Z,3.53
2024-03-12T12:53:11.394Z,3.67
2024-03-12T12:55:38.341Z,3.70
2024-03-12T12:58:08.157Z,3.67
2024-03-12T13:00:41.020Z,3.47
2024-03-12T13:03:19.094Z,3.60
2024-03-12T13:05:47.269Z,3.60
2024-03-12T13:08:42.801Z,3.92
2024-03-12T13:11:10.596Z,3.80
2024-03-12T13:13:39.011Z,3.97
2024-03-12T13:16:16.421Z,4.63
2024-03-12T13:18:48.341Z,3.00
2024-03-12T13:21:16.763Z,3.40
2024-03-12T13:23:47.053Z,4.07
2024-03-12T13:26:18.659Z,3.72
2024-03-12T13:28:50.643Z,4.07
2024-03-12T13:31:17.687Z,4.05
2024-03-12T13:33:45.346Z,3.70
2024-03-12T13:36:12.910Z,3.90
2024-03-12T13:38:43.618Z,3.47
2024-03-12T13:41:11.400Z,3.72
2024-03-12T13:43:39.296Z,3.55
2024-03-12T13:46:06.890Z,3.60
2024-03-12T13:48:37.745Z,3.88
2024-03-12T13:51:08.772Z,3.78
2024-03-12T13:53:36.329Z,3.72
2024-03-12T13:56:06.121Z,3.50
2024-03-12T13:58:33.406Z,3.20
2024-03-12T14:01:00.801Z,3.88
2024-03-12T14:03:29.636Z,4.45
2024-03-12T14:05:57.502Z,4.03
2024-03-12T14:08:24.797Z,4.70
2024-03-12T14:10:53.135Z,3.97
2024-03-12T14:13:22.597Z,4.10
2024-03-12T14:15:49.769Z,3.75
2024-03-12T14:18:17.259Z,4.18
2024-03-12T14:20:44.389Z,4.47
2024-03-12T14:23:11.341Z,3.97
2024-03-12T14:25:38.751Z,4.72
2024-03-12T14:28:08.529Z,4.43
2024-03-12T14:30:35.405Z,4.80
2024-03-12T14:33:02.530Z,4.78
2024-03-12T14:35:29.424Z,5.00
2024-03-12T14:37:57.086Z,5.40
2024-03-12T14:40:24.118Z,5.07
2024-03-12T14:42:53.374Z,6.00
2024-03-12T14:45:20.428Z,5.03
2024-03-12T14:47:47.364Z,5.82
2024-03-12T14:50:15.508Z,5.80
2024-03-12T14:52:42.674Z,5.53
2024-03-12T14:55:11.124Z,5.50
2024-03-12T14:57:38.964Z,5.25
2024-03-12T15:00:09.357Z,6.07
2024-03-12T15:02:39.534Z,6.22
2024-03-12T15:05:12.418Z,5.47
2024-03-12T15:07:41.160Z,5.60
2024-03-12T15:10:11.523Z,5.95
2024-03-12T15:12:40.993Z,6.18
2024-03-12T15:15:13.542Z,5.72
2024-03-12T15:17:43.319Z,5.70
2024-03-12T15:20:20.145Z,5.80
2024-03-12T15:22:50.405Z,5.20
2024-03-12T15:25:20.443Z,5.82
2024-03-12T15:27:50.386Z,5.93
2024-03-12T15:30:17.997Z,6.10
2024-03-12T15:32:47.012Z,5.53
2024-03-12T15:35:15.565Z,5.20
2024-03-12T15:37:43.534Z,4.75
2024-03-12T15:40:12.953Z,5.20
2024-03-12T15:42:45.157Z,5.35
2024-03-12T15:45:16.279Z,4.53
2024-03-12T15:47:45.019Z,4.93
2024-03-12T15:50:13.060Z,5.13
2024-03-12T15:52:40.416Z,5.07
2024-03-12T15:55:09.330Z,5.10
2024-03-12T15:57:38.646Z,5.32
2024-03-12T16:00:10.518Z,5.38
2024-03-12T16:02:40.779Z,5.65
2024-03-12T16:05:07.978Z,4.95
2024-03-12T16:07:40.632Z,5.25
2024-03-12T16:10:12.292Z,5.57
2024-03-12T16:12:42.689Z,5.47
2024-03-12T16:15:12.037Z,5.32
2024-03-12T16:17:39.025Z,5.45
2024-03-12T16:20:13.575Z,5.05
2024-03-12T16:22:42.005Z,4.68
2024-03-12T16:25:09.651Z,5.32
2024-03-12T16:27:37.047Z,5.63
2024-03-12T16:30:05.374Z,5.20
2024-03-12T16:32:33.766Z,4.93
2024-03-12T16:35:00.965Z,5.40
2024-03-12T16:37:28.459Z,5.05
2024-03-12T16:39:55.588Z,5.38
2024-03-12T16:42:22.956Z,5.28
2024-03-12T16:44:51.335Z,4.68
2024-03-12T16:47:18.178Z,4.57
2024-03-12T16:49:46.710Z,4.55
2024-03-12T16:52:15.410Z,4.60
2024-03-12T16:54:43.066Z,4.38
2024-03-12T16:57:10.685Z,5.32
2024-03-12T16:59:37.828Z,4.65
2024-03-12T17:02:09.510Z,4.43
2024-03-12T17:04:38.202Z,4.53
2024-03-12T17:07:09.333Z,4.75
2024-03-12T17:09:43.025Z,4.80
2024-03-12T17:12:10.693Z,4.18
2024-03-12T17:14:37.713Z,4.53
2024-03-12T17:17:08.506Z,3.97
2024-03-12T17:19:40.294Z,3.80
2024-03-12T17:22:07.733Z,4.03
2024-03-12T17:24:35.918Z,3.90
2024-03-12T17:27:06.169Z,4.15
2024-03-12T17:29:33.318Z,4.25
2024-03-12T17:32:00.734Z,3.45
2024-03-12T17:34:29.017Z,3.92
2024-03-12T17:37:00.344Z,3.67
2024-03-12T17:39:33.523Z,4.35
2024-03-12T17:42:01.919Z,4.18
2024-03-12T17:44:29.352Z,3.72
2024-03-12T17:46:56.895Z,3.90
2024-03-12T17:49:26.717Z,3.08
2024-03-12T17:51:55.174Z,3.30
2024-03-12T17:54:22.770Z,3.50
2024-03-12T17:56:51.665Z,3.00
2024-03-12T17:59:20.329Z,3.13
2024-03-12T18:01:48.120Z,3.60
2024-03-12T18:04:15.770Z,3.97
2024-03-12T18:06:45.374Z,3.25
2024-03-12T18:09:13.544Z,3.28
2024-03-12T18:11:43.693Z,3.20
2024-03-12T18:14:11.648Z,4.18
2024-03-12T18:16:39.453Z,4.28
2024-03-12T18:19:07.371Z,3.72
2024-03-12T18:21:35.446Z,2.85
2024-03-12T18:24:02.449Z,3.80
2024-03-12T18:26:29.472Z,3.08
2024-03-12T18:28:58.023Z,2.90
2024-03-12T18:31:25.749Z,4.38
2024-03-12T18:33:52.783Z,3.00
2024-03-12T18:36:20.598Z,3.38
2024-03-12T18:38:47.771Z,3.45
2024-03-12T18:41:15.318Z,4.00
2024-03-12T18:43:42.698Z,3.80
2024-03-12T18:46:09.961Z,4.20
2024-03-12T18:48:37.558Z,4.38
2024-03-12T18:51:06.056Z,3.25
2024-03-12T18:53:34.930Z,3.38
2024-03-12T18:56:04.199Z,2.90
2024-03-12T18:58:31.596Z,3.50
2024-03-12T19:00:59.426Z,3.65
2024-03-12T19:03:40.178Z,3.85
2024-03-12T19:06:19.214Z,3.42
2024-03-12T19:08:53.568Z,3.75
2024-03-12T19:11:21.537Z,3.58
2024-03-12T19:13:49.600Z,3.40
2024-03-12T19:16:21.805Z,3.92
2024-03-12T19:18:50.579Z,4.13
2024-03-12T19:21:20.933Z,3.70
2024-03-12T19:23:49.792Z,4.20
2024-03-12T19:26:19.066Z,3.55
2024-03-12T19:28:46.802Z,5.00
2024-03-12T19:31:15.408Z,4.18
2024-03-12T19:33:43.498Z,4.32
2024-03-12T19:36:12.534Z,3.88
2024-03-12T19:38:40.372Z,4.82
2024-03-12T19:41:08.450Z,3.97
2024-03-12T19:43:35.625Z,4.43
2024-03-12T19:46:02.810Z,4.05
2024-03-12T19:48:30.111Z,3.72
2024-03-12T19:50:57.185Z,4.05
2024-03-12T19:53:24.188Z,3.65
2024-03-12T19:55:52.596Z,3.67
2024-03-12T19:58:19.868Z,3.75
2024-03-12T20:00:49.388Z,3.90
2024-03-12T20:03:23.271Z,4.32
2024-03-12T20:05:51.033Z,4.25
2024-03-12T20:08:18.192Z,3.80
2024-03-12T20:10:47.119Z,3.90
2024-03-12T20:13:14.582Z,3.08
2024-03-12T20:15:46.052Z,3.30
2024-03-12T20:18:14.814Z,3.33
2024-03-12T20:20:44.495Z,3.60
2024-03-12T20:23:12.069Z,3.55
2024-03-12T20:25:39.246Z,3.40
2024-03-12T20:28:10.961Z,4.57
2024-03-12T20:30:40.190Z,3.97
2024-03-12T20:33:09.765Z,3.30
2024-03-12T20:35:39.334Z,3.13
2024-03-12T20:38:08.018Z,3.53
2024-03-12T20:40:35.172Z,3.67
2024-03-12T20:43:02.215Z,4.20
2024-03-12T20:45:30.153Z,3.95
2024-03-12T20:47:57.418Z,4.03
2024-03-12T20:50:25.002Z,3.90
2024-03-12T20:52:52.187Z,4.55
2024-03-12T20:55:20.002Z,3.95
2024-03-12T20:57:49.052Z,4.07
2024-03-12T21:00:33.324Z,8.15
2024-03-12T21:03:00.858Z,4.60
2024-03-12T21:05:33.044Z,5.53
2024-03-12T21:08:01.464Z,6.53
2024-03-12T21:10:28.426Z,7.47
2024-03-12T21:12:56.929Z,6.13
2024-03-12T21:15:23.932Z,4.38
2024-03-12T21:17:51.068Z,4.38
2024-03-12T21:20:33.503Z,3.97
2024-03-12T21:23:00.775Z,4.13
2024-03-12T21:25:30.243Z,4.03
2024-03-12T21:27:58.976Z,4.43
2024-03-12T21:30:26.193Z,4.45
2024-03-12T21:32:54.799Z,4.00
2024-03-12T21:35:22.035Z,4.18
2024-03-12T21:37:48.895Z,3.97
2024-03-12T21:40:17.452Z,4.57
2024-03-12T21:42:45.754Z,4.68
2024-03-12T21:45:16.832Z,3.97
2024-03-12T21:47:46.780Z,3.90
2024-03-12T21:50:15.574Z,4.40
2024-03-12T21:52:43.152Z,4.70
2024-03-12T21:55:12.145Z,4.00
2024-03-12T21:57:41.052Z,4.22
2024-03-12T22:00:29.879Z,4.60
2024-03-12T22:02:58.730Z,4.20
2024-03-12T22:05:25.912Z,4.82
2024-03-12T22:07:53.441Z,4.07
2024-03-12T22:10:20.527Z,4.13
2024-03-12T22:12:48.121Z,4.55
2024-03-12T22:15:16.146Z,4.18
2024-03-12T22:17:45.897Z,5.15
2024-03-12T22:20:19.910Z,5.00
2024-03-12T22:22:50.594Z,4.80
2024-03-12T22:25:19.961Z,4.75
2024-03-12T22:27:49.323Z,4.10
2024-03-12T22:30:17.777Z,4.40
2024-03-12T22:32:46.331Z,5.45
2024-03-12T22:35:13.607Z,5.05
2024-03-12T22:37:43.454Z,5.22
2024-03-12T22:40:13.720Z,5.40
2024-03-12T22:42:41.347Z,5.25
2024-03-12T22:45:10.806Z,5.40
2024-03-12T22:47:40.697Z,5.57
2024-03-12T22:50:09.261Z,5.53
2024-03-12T22:52:37.663Z,5.10
2024-03-12T22:55:08.716Z,5.38
2024-03-12T22:57:39.682Z,5.47
2024-03-12T23:00:25.243Z,5.57
2024-03-12T23:03:03.697Z,4.97
2024-03-12T23:05:35.548Z,5.60
2024-03-12T23:08:07.182Z,4.95
2024-03-12T23:10:37.837Z,5.80
2024-03-12T23:13:05.723Z,4.50
2024-03-12T23:15:32.802Z,5.63
2024-03-12T23:18:04.119Z,5.43
2024-03-12T23:20:31.989Z,4.80
2024-03-12T23:22:59.467Z,5.10
2024-03-12T23:25:26.311Z,5.10
2024-03-12T23:27:55.528Z,4.82
2024-03-12T23:30:23.239Z,5.03
2024-03-12T23:32:52.816Z,5.15
2024-03-12T23:35:20.032Z,4.88
2024-03-12T23:37:46.917Z,4.65
2024-03-12T23:40:13.826Z,5.10
2024-03-12T23:42:41.389Z,4.75
2024-03-12T23:45:11.624Z,4.82
2024-03-12T23:47:40.585Z,4.55
2024-03-12T23:50:12.692Z,4.90
2024-03-12T23:52:43.065Z,4.70
2024-03-12T23:55:12.364Z,4.72
2024-03-12T23:57:39.767Z,4.97
